createdAt,value
2022-11-17T00:00:42.793Z,9.43
2022-11-17T00:03:14.743Z,9.17
2022-11-17T00:05:42.590Z,8.27
2022-11-17T00:08:10.447Z,9.27
2022-11-17T00:10:38.312Z,8.40
2022-11-17T00:13:23.913Z,8.47
2022-11-17T00:15:53.180Z,7.20
2022-11-17T00:18:44.060Z,8.30
2022-11-17T00:21:21.137Z,8.53
2022-11-17T00:23:49.909Z,7.80
2022-11-17T00:26:19.562Z,7.87
2022-11-17T00:28:47.416Z,8.03
2022-11-17T00:31:34.013Z,7.17
2022-11-17T00:34:07.933Z,7.13
2022-11-17T00:36:38.512Z,7.37
2022-11-17T00:39:07.310Z,7.43
2022-11-17T00:41:35.197Z,7.57
2022-11-17T00:44:03.179Z,6.30
2022-11-17T00:46:32.864Z,8.27
2022-11-17T00:49:01.094Z,6.83
2022-11-17T00:51:29.077Z,7.20
2022-11-17T00:53:56.917Z,7.40
2022-11-17T00:56:25.490Z,7.17
2022-11-17T00:58:53.616Z,7.07
2022-11-17T01:01:22.356Z,6.97
2022-11-17T01:03:51.596Z,7.80
2022-11-17T01:06:21.186Z,7.93
2022-11-17T01:08:48.988Z,7.70
2022-11-17T01:11:18.264Z,7.97
2022-11-17T01:13:47.700Z,6.90
2022-11-17T01:16:17.232Z,7.27
2022-11-17T01:18:47.139Z,7.10
2022-11-17T01:21:18.302Z,7.93
2022-11-17T01:23:47.414Z,7.00
2022-11-17T01:26:17.286Z,7.97
2022-11-17T01:28:45.716Z,8.30
2022-11-17T01:31:15.426Z,6.93
2022-11-17T01:33:43.677Z,7.70
2022-11-17T01:36:13.729Z,7.73
2022-11-17T01:38:43.050Z,6.73
2022-11-17T01:41:20.299Z,8.33
2022-11-17T01:43:51.047Z,8.17
2022-11-17T01:46:29.634Z,8.03
2022-11-17T01:49:01.821Z,7.70
2022-11-17T01:51:32.087Z,8.90
2022-11-17T01:54:02.095Z,8.20
2022-11-17T01:56:34.599Z,8.97
2022-11-17T01:59:08.116Z,8.97
2022-11-17T02:01:55.504Z,8.90
2022-11-17T02:04:25.579Z,9.97
2022-11-17T02:06:58.135Z,8.17
2022-11-17T02:09:28.517Z,8.67
2022-11-17T02:11:59.734Z,9.70
2022-11-17T02:14:27.609Z,9.83
2022-11-17T02:16:55.469Z,9.97
2022-11-17T02:19:26.174Z,8.77
2022-11-17T02:22:15.107Z,8.70
2022-11-17T02:25:09.051Z,8.53
2022-11-17T02:28:16.329Z,11.70
2022-11-17T02:30:55.337Z,9.13
2022-11-17T02:33:29.398Z,7.73
2022-11-17T02:36:05.322Z,8.30
2022-11-17T02:38:41.036Z,8.30
2022-11-17T02:41:18.613Z,8.20
2022-11-17T02:44:03.958Z,7.20
2022-11-17T02:46:44.610Z,7.37
2022-11-17T02:49:19.724Z,7.73
2022-11-17T02:51:51.093Z,7.60
2022-11-17T02:54:20.531Z,7.87
2022-11-17T02:56:48.334Z,7.60
2022-11-17T02:59:19.779Z,6.73
2022-11-17T03:02:04.821Z,7.50
2022-11-17T03:04:40.361Z,7.60
2022-11-17T03:07:23.004Z,6.77
2022-11-17T03:10:01.521Z,7.10
2022-11-17T03:12:35.824Z,7.63
2022-11-17T03:15:13.438Z,5.90
2022-11-17T03:17:48.977Z,7.00
2022-11-17T03:20:20.984Z,8.03
2022-11-17T03:22:54.194Z,6.50
2022-11-17T03:25:24.779Z,6.90
2022-11-17T03:27:57.358Z,6.77
2022-11-17T03:30:29.951Z,6.70
2022-11-17T03:33:05.823Z,6.63
2022-11-17T03:35:39.496Z,7.20
2022-11-17T03:38:11.747Z,5.83
2022-11-17T03:40:44.352Z,7.03
2022-11-17T03:43:14.039Z,5.80
2022-11-17T03:45:49.101Z,6.20
2022-11-17T03:48:22.877Z,6.80
2022-11-17T03:50:55.627Z,6.10
2022-11-17T03:53:24.176Z,6.90
2022-11-17T03:55:59.005Z,6.40
2022-11-17T03:58:30.984Z,6.13
2022-11-17T04:01:02.709Z,5.60
2022-11-17T04:03:31.881Z,6.13
2022-11-17T04:05:59.945Z,6.17
2022-11-17T04:08:30.497Z,6.60
2022-11-17T04:11:16.075Z,5.47
2022-11-17T04:14:01.685Z,6.47
2022-11-17T04:16:30.909Z,5.47
2022-11-17T04:18:59.188Z,5.80
2022-11-17T04:21:27.265Z,5.20
2022-11-17T04:23:56.031Z,5.73
2022-11-17T04:26:41.543Z,6.60
2022-11-17T04:29:09.387Z,5.90
2022-11-17T04:31:38.572Z,6.00
2022-11-17T04:34:07.908Z,5.70
2022-11-17T04:36:37.781Z,6.03
2022-11-17T04:39:05.790Z,6.27
2022-11-17T04:41:53.140Z,5.73
2022-11-17T04:44:22.397Z,6.97
2022-11-17T04:46:51.646Z,5.67
2022-11-17T04:49:21.397Z,6.40
2022-11-17T04:51:50.379Z,6.40
2022-11-17T04:54:21.703Z,6.30
2022-11-17T04:56:49.539Z,5.93
2022-11-17T04:59:17.346Z,6.07
2022-11-17T05:01:45.315Z,7.03
2022-11-17T05:04:36.629Z,6.40
2022-11-17T05:07:05.169Z,6.20
2022-11-17T05:09:33.100Z,5.90
2022-11-17T05:12:18.192Z,6.93
2022-11-17T05:14:47.575Z,6.50
2022-11-17T05:17:14.469Z,5.87
2022-11-17T05:19:45.265Z,7.20
2022-11-17T05:22:32.467Z,6.60
2022-11-17T05:25:00.301Z,7.07
2022-11-17T05:27:28.477Z,7.73
2022-11-17T05:29:56.328Z,6.67
2022-11-17T05:32:24.177Z,7.83
2022-11-17T05:34:53.419Z,7.60
2022-11-17T05:37:21.246Z,7.60
2022-11-17T05:39:49.082Z,7.43
2022-11-17T05:42:16.951Z,8.80
2022-11-17T05:44:44.818Z,7.00
2022-11-17T05:47:12.607Z,6.97
2022-11-17T05:49:40.512Z,6.60
2022-11-17T05:52:09.814Z,7.80
2022-11-17T05:54:37.786Z,7.37
2022-11-17T05:57:10.437Z,7.90
2022-11-17T05:59:41.597Z,7.03
2022-11-17T06:02:14.861Z,7.80
2022-11-17T06:04:42.861Z,6.93
2022-11-17T06:07:12.337Z,8.30
2022-11-17T06:09:42.495Z,8.07
2022-11-17T06:12:11.923Z,6.77
2022-11-17T06:14:39.962Z,8.00
2022-11-17T06:17:13.409Z,6.83
2022-11-17T06:19:46.534Z,7.90
2022-11-17T06:22:15.865Z,7.80
2022-11-17T06:24:45.071Z,7.37
2022-11-17T06:27:14.947Z,8.00
2022-11-17T06:29:44.838Z,7.70
2022-11-17T06:32:13.863Z,7.73
2022-11-17T06:34:42.231Z,7.30
2022-11-17T06:37:11.221Z,7.33
2022-11-17T06:39:40.505Z,7.60
2022-11-17T06:42:08.290Z,7.83
2022-11-17T06:44:36.197Z,8.37
2022-11-17T06:47:04.140Z,8.07
2022-11-17T06:49:32.052Z,9.13
2022-11-17T06:51:59.865Z,9.07
2022-11-17T06:54:27.738Z,9.40
2022-11-17T06:56:57.074Z,9.68
2022-11-17T06:59:25.023Z,8.50
2022-11-17T07:01:52.847Z,9.30
2022-11-17T07:04:20.693Z,8.20
2022-11-17T07:06:48.668Z,8.00
2022-11-17T07:09:16.480Z,8.53
2022-11-17T07:11:44.314Z,7.93
2022-11-17T07:14:13.482Z,8.47
2022-11-17T07:16:42.865Z,8.00
2022-11-17T07:19:11.319Z,8.10
2022-11-17T07:21:39.157Z,7.67
2022-11-17T07:24:07.487Z,7.30
2022-11-17T07:26:35.329Z,6.60
2022-11-17T07:29:03.165Z,7.47
2022-11-17T07:31:32.355Z,8.50
2022-11-17T07:34:00.178Z,8.17
2022-11-17T07:36:27.970Z,6.97
2022-11-17T07:38:55.827Z,8.33
2022-11-17T07:41:23.648Z,8.00
2022-11-17T07:43:51.455Z,7.57
2022-11-17T07:46:19.403Z,7.93
2022-11-17T07:48:48.588Z,6.33
2022-11-17T07:51:17.386Z,7.10
2022-11-17T07:53:45.232Z,7.60
2022-11-17T07:56:13.134Z,6.80
2022-11-17T07:58:44.376Z,6.90
2022-11-17T08:01:15.319Z,7.23
2022-11-17T08:03:43.343Z,7.03
2022-11-17T08:06:12.834Z,6.17
2022-11-17T08:08:40.941Z,6.63
2022-11-17T08:11:11.148Z,5.63
2022-11-17T08:13:40.466Z,8.57
2022-11-17T08:16:10.268Z,5.90
2022-11-17T08:18:38.619Z,6.30
2022-11-17T08:21:09.203Z,6.80
2022-11-17T08:23:38.684Z,6.07
2022-11-17T08:26:08.214Z,5.63
2022-11-17T08:28:36.589Z,6.27
2022-11-17T08:31:06.201Z,5.53
2022-11-17T08:33:34.647Z,5.30
2022-11-17T08:36:03.330Z,5.70
2022-11-17T08:38:31.987Z,6.30
2022-11-17T08:41:04.145Z,5.90
2022-11-17T08:43:31.979Z,5.13
2022-11-17T08:45:59.864Z,4.87
2022-11-17T08:48:29.430Z,5.50
2022-11-17T08:50:57.411Z,6.97
2022-11-17T08:53:25.292Z,5.40
2022-11-17T08:55:53.157Z,5.03
2022-11-17T08:58:22.358Z,5.70
2022-11-17T09:00:50.250Z,5.60
2022-11-17T09:03:18.238Z,5.30
2022-11-17T09:05:48.396Z,4.63
2022-11-17T09:08:44.067Z,4.80
2022-11-17T09:11:06.376Z,4.57
2022-11-17T09:13:36.088Z,4.50
2022-11-17T09:16:04.385Z,4.37
2022-11-17T09:18:32.523Z,4.53
2022-11-17T09:21:01.927Z,4.40
2022-11-17T09:23:30.021Z,3.50
2022-11-17T09:25:58.072Z,3.60
2022-11-17T09:28:26.622Z,3.50
2022-11-17T09:30:55.994Z,3.73
2022-11-17T09:33:23.915Z,4.57
2022-11-17T09:35:51.751Z,4.07
2022-11-17T09:38:20.153Z,4.20
2022-11-17T09:40:48.019Z,3.73
2022-11-17T09:43:24.322Z,3.70
2022-11-17T09:45:56.010Z,3.83
2022-11-17T09:48:41.781Z,3.93
2022-11-17T09:51:17.116Z,3.70
2022-11-17T09:53:51.576Z,3.60
2022-11-17T09:56:19.539Z,4.13
2022-11-17T09:58:51.930Z,3.50
2022-11-17T10:01:24.416Z,3.50
2022-11-17T10:03:53.602Z,4.30
2022-11-17T10:06:23.342Z,3.43
2022-11-17T10:09:00.315Z,3.60
2022-11-17T10:11:35.003Z,3.80
2022-11-17T10:14:11.058Z,3.50
2022-11-17T10:16:42.857Z,3.80
2022-11-17T10:19:16.669Z,3.80
2022-11-17T10:21:44.810Z,3.87
2022-11-17T10:24:12.796Z,4.13
2022-11-17T10:26:48.867Z,3.70
2022-11-17T10:29:23.901Z,3.00
2022-11-17T10:31:53.121Z,4.17
2022-11-17T10:34:40.523Z,3.37
2022-11-17T10:37:28.380Z,3.77
2022-11-17T10:40:18.195Z,4.20
2022-11-17T10:42:57.856Z,3.80
2022-11-17T10:45:26.045Z,3.87
2022-11-17T10:48:09.956Z,4.10
2022-11-17T10:50:38.031Z,4.10
2022-11-17T10:53:30.736Z,3.93
2022-11-17T10:56:03.606Z,4.33
2022-11-17T10:58:34.192Z,4.03
2022-11-17T11:01:04.299Z,4.63
2022-11-17T11:03:35.571Z,4.07
2022-11-17T11:06:07.070Z,4.37
2022-11-17T11:08:42.091Z,4.40
2022-11-17T11:11:18.919Z,4.80
2022-11-17T11:13:53.042Z,4.03
2022-11-17T11:16:21.087Z,5.10
2022-11-17T11:18:52.976Z,5.10
2022-11-17T11:21:36.112Z,4.50
2022-11-17T11:24:12.486Z,4.33
2022-11-17T11:26:52.042Z,3.50
2022-11-17T11:29:29.617Z,4.40
2022-11-17T11:32:10.533Z,4.20
2022-11-17T11:35:03.876Z,4.03
2022-11-17T11:37:38.888Z,4.10
2022-11-17T11:40:16.023Z,4.30
2022-11-17T11:42:51.894Z,4.60
2022-11-17T11:45:24.745Z,3.70
2022-11-17T11:48:09.868Z,4.50
2022-11-17T11:50:48.380Z,4.20
2022-11-17T11:53:22.349Z,4.40
2022-11-17T11:55:55.894Z,4.10
2022-11-17T11:58:25.363Z,3.20
2022-11-17T12:00:57.359Z,4.30
2022-11-17T12:03:29.851Z,3.90
2022-11-17T12:06:28.834Z,3.60
2022-11-17T12:09:03.945Z,3.77
2022-11-17T12:11:50.922Z,3.40
2022-11-17T12:14:20.096Z,3.70
2022-11-17T12:16:49.087Z,3.70
2022-11-17T12:19:50.177Z,4.33
2022-11-17T12:22:40.110Z,3.60
2022-11-17T12:25:17.118Z,3.60
2022-11-17T12:27:46.782Z,3.90
2022-11-17T12:30:57.737Z,3.87
2022-11-17T12:33:53.820Z,5.00
2022-11-17T12:36:31.568Z,3.73
2022-11-17T12:39:01.741Z,4.17
2022-11-17T12:42:07.454Z,4.00
2022-11-17T12:45:05.994Z,4.10
2022-11-17T12:47:35.637Z,4.40
2022-11-17T12:50:31.961Z,4.97
2022-11-17T12:53:27.557Z,5.47
2022-11-17T12:56:13.124Z,5.03
2022-11-17T12:58:52.292Z,4.17
2022-11-17T13:01:29.090Z,5.50
2022-11-17T13:04:02.030Z,5.27
2022-11-17T13:06:37.221Z,4.43
2022-11-17T13:09:07.325Z,5.30
2022-11-17T13:11:37.767Z,4.33
2022-11-17T13:14:13.940Z,4.33
2022-11-17T13:16:49.811Z,4.90
2022-11-17T13:19:36.362Z,5.10
2022-11-17T13:22:06.562Z,4.30
2022-11-17T13:24:36.835Z,5.50
2022-11-17T13:27:17.699Z,4.40
2022-11-17T13:29:45.546Z,4.30
2022-11-17T13:32:16.591Z,5.70
2022-11-17T13:34:53.260Z,4.97
2022-11-17T13:37:23.360Z,6.00
2022-11-17T13:39:59.782Z,4.87
2022-11-17T13:42:32.238Z,5.67
2022-11-17T13:45:02.621Z,5.23
2022-11-17T13:47:45.325Z,4.67
2022-11-17T13:50:24.465Z,5.50
2022-11-17T13:52:56.744Z,5.60
2022-11-17T13:55:25.755Z,5.00
2022-11-17T13:57:59.584Z,6.37
2022-11-17T14:00:28.328Z,5.80
2022-11-17T14:02:57.120Z,5.77
2022-11-17T14:05:27.573Z,5.20
2022-11-17T14:07:57.756Z,5.67
2022-11-17T14:10:32.245Z,5.70
2022-11-17T14:13:23.001Z,5.43
2022-11-17T14:16:00.654Z,5.53
2022-11-17T14:18:31.697Z,5.20
2022-11-17T14:21:11.642Z,6.27
2022-11-17T14:23:40.205Z,6.03
2022-11-17T14:26:18.042Z,5.70
2022-11-17T14:28:48.306Z,5.90
2022-11-17T14:31:16.331Z,5.50
2022-11-17T14:33:44.178Z,7.10
2022-11-17T14:36:15.454Z,6.63
2022-11-17T14:38:44.598Z,5.63
2022-11-17T14:41:12.435Z,7.63
2022-11-17T14:43:40.225Z,6.17
2022-11-17T14:46:18.236Z,7.03
2022-11-17T14:48:46.086Z,7.17
2022-11-17T14:51:17.280Z,5.90
2022-11-17T14:53:45.906Z,6.40
2022-11-17T14:56:16.690Z,5.30
2022-11-17T14:58:44.583Z,6.57
2022-11-17T15:01:17.309Z,6.40
2022-11-17T15:03:45.379Z,5.93
2022-11-17T15:06:19.506Z,5.60
2022-11-17T15:08:48.667Z,5.37
2022-11-17T15:11:18.408Z,6.63
2022-11-17T15:13:46.345Z,5.67
2022-11-17T15:16:15.632Z,5.70
2022-11-17T15:18:46.080Z,6.47
2022-11-17T15:21:14.799Z,6.00
2022-11-17T15:23:43.330Z,6.73
2022-11-17T15:26:14.031Z,5.70
2022-11-17T15:28:42.441Z,5.87
2022-11-17T15:31:12.020Z,5.43
2022-11-17T15:33:41.973Z,6.60
2022-11-17T15:36:11.489Z,5.80
2022-11-17T15:38:40.542Z,7.00
2022-11-17T15:41:09.756Z,6.50
2022-11-17T15:43:39.391Z,6.20
2022-11-17T15:46:08.862Z,6.47
2022-11-17T15:48:40.055Z,6.80
2022-11-17T15:51:11.086Z,6.03
2022-11-17T15:53:39.560Z,5.67
2022-11-17T15:56:09.545Z,6.93
2022-11-17T15:58:37.884Z,5.30
2022-11-17T16:01:10.298Z,6.17
2022-11-17T16:03:38.492Z,5.53
2022-11-17T16:06:06.830Z,5.80
2022-11-17T16:08:36.322Z,5.33
2022-11-17T16:11:04.758Z,5.00
2022-11-17T16:13:32.819Z,4.90
2022-11-17T16:16:00.772Z,4.67
2022-11-17T16:18:28.589Z,5.00
2022-11-17T16:21:00.176Z,4.83
2022-11-17T16:23:32.360Z,5.20
2022-11-17T16:26:02.992Z,5.00
2022-11-17T16:28:30.862Z,4.60
2022-11-17T16:30:58.767Z,4.40
2022-11-17T16:33:27.035Z,5.13
2022-11-17T16:35:54.885Z,4.23
2022-11-17T16:38:22.690Z,4.23
2022-11-17T16:40:50.589Z,4.57
2022-11-17T16:43:19.832Z,4.93
2022-11-17T16:45:47.633Z,4.77
2022-11-17T16:48:15.525Z,4.70
2022-11-17T16:50:43.455Z,4.80
2022-11-17T16:53:11.331Z,5.30
2022-11-17T16:55:39.706Z,5.13
2022-11-17T16:58:08.780Z,6.03
2022-11-17T17:00:38.311Z,5.10
2022-11-17T17:03:06.264Z,5.63
2022-11-17T17:05:40.242Z,5.90
2022-11-17T17:08:08.068Z,5.53
2022-11-17T17:10:35.894Z,5.17
2022-11-17T17:13:03.775Z,5.20
2022-11-17T17:15:31.623Z,5.07
2022-11-17T17:18:00.835Z,5.60
2022-11-17T17:20:28.642Z,5.30
2022-11-17T17:23:01.730Z,5.30
2022-11-17T17:25:30.796Z,5.07
2022-11-17T17:27:58.650Z,5.10
2022-11-17T17:30:26.499Z,5.57
2022-11-17T17:32:54.413Z,5.90
2022-11-17T17:35:23.599Z,4.93
2022-11-17T17:37:51.432Z,5.17
2022-11-17T17:40:19.384Z,4.87
2022-11-17T17:42:47.471Z,5.53
2022-11-17T17:45:15.425Z,5.20
2022-11-17T17:47:43.247Z,5.13
2022-11-17T17:50:11.197Z,5.43
2022-11-17T17:52:40.469Z,5.30
2022-11-17T17:55:08.947Z,6.37
2022-11-17T17:57:36.808Z,6.00
2022-11-17T18:00:05.913Z,4.90
2022-11-17T18:02:34.704Z,5.93
2022-11-17T18:05:03.639Z,5.97
2022-11-17T18:07:31.956Z,5.63
2022-11-17T18:10:01.133Z,5.47
2022-11-17T18:12:28.943Z,5.10
2022-11-17T18:14:56.734Z,6.20
2022-11-17T18:17:24.597Z,5.30
2022-11-17T18:19:52.482Z,6.03
2022-11-17T18:22:20.270Z,5.90
2022-11-17T18:24:48.070Z,6.00
2022-11-17T18:27:17.225Z,6.40
2022-11-17T18:29:45.072Z,6.67
2022-11-17T18:32:12.878Z,7.43
2022-11-17T18:34:41.765Z,6.80
2022-11-17T18:37:09.621Z,6.50
2022-11-17T18:39:38.176Z,6.50
2022-11-17T18:42:06.277Z,6.33
2022-11-17T18:44:35.425Z,6.33
2022-11-17T18:47:03.437Z,6.63
2022-11-17T18:49:31.401Z,6.80
2022-11-17T18:52:00.267Z,7.43
2022-11-17T18:54:28.081Z,7.77
2022-11-17T18:56:56.172Z,8.07
2022-11-17T18:59:23.977Z,8.20
2022-11-17T19:01:53.125Z,8.47
2022-11-17T19:04:21.122Z,7.57
2022-11-17T19:06:48.930Z,8.80
2022-11-17T19:09:17.738Z,9.10
2022-11-17T19:11:45.874Z,10.23
2022-11-17T19:14:13.755Z,8.40
2022-11-17T19:16:44.799Z,9.97
2022-11-17T19:19:15.165Z,9.60
2022-11-17T19:21:44.123Z,11.00
2022-11-17T19:24:11.956Z,9.53
2022-11-17T19:26:39.885Z,9.13
2022-11-17T19:29:16.072Z,9.80
2022-11-17T19:31:45.627Z,10.50
2022-11-17T19:34:15.101Z,9.47
2022-11-17T19:36:44.408Z,10.07
2022-11-17T19:39:13.435Z,10.40
2022-11-17T19:41:41.496Z,10.77
2022-11-17T19:44:10.277Z,10.47
2022-11-17T19:46:39.243Z,10.77
2022-11-17T19:49:08.805Z,10.17
2022-11-17T19:51:38.332Z,10.70
2022-11-17T19:54:08.285Z,10.97
2022-11-17T19:56:36.609Z,10.27
2022-11-17T19:59:04.738Z,12.07
2022-11-17T20:01:33.685Z,12.00
2022-11-17T20:04:02.639Z,11.07
2022-11-17T20:06:34.730Z,10.40
2022-11-17T20:09:08.004Z,11.20
2022-11-17T20:11:37.465Z,12.23
2022-11-17T20:14:05.642Z,13.00
2022-11-17T20:16:34.098Z,11.37
2022-11-17T20:19:02.866Z,12.50
2022-11-17T20:21:31.719Z,12.00
2022-11-17T20:24:01.092Z,11.67
2022-11-17T20:26:32.222Z,13.30
2022-11-17T20:29:00.962Z,12.20
2022-11-17T20:31:31.681Z,11.60
2022-11-17T20:34:00.775Z,13.97
2022-11-17T20:36:29.451Z,11.90
2022-11-17T20:38:58.979Z,12.03
2022-11-17T20:41:27.629Z,13.30
2022-11-17T20:43:58.597Z,11.63
2022-11-17T20:46:27.087Z,12.80
2022-11-17T20:48:55.453Z,12.73
2022-11-17T20:51:26.902Z,13.40
2022-11-17T20:53:55.047Z,12.50
2022-11-17T20:56:22.929Z,12.20
2022-11-17T20:58:50.867Z,14.27
2022-11-17T21:01:22.999Z,13.57
2022-11-17T21:03:51.260Z,12.63
2022-11-17T21:06:20.039Z,13.77
2022-11-17T21:08:48.233Z,12.70
2022-11-17T21:11:31.856Z,12.70
2022-11-17T21:13:59.908Z,13.80
2022-11-17T21:16:29.509Z,14.17
2022-11-17T21:18:57.432Z,13.83
2022-11-17T21:21:25.517Z,14.03
2022-11-17T21:23:54.571Z,13.70
2022-11-17T21:26:23.759Z,14.33
2022-11-17T21:28:52.397Z,12.50
2022-11-17T21:31:22.145Z,14.20
2022-11-17T21:33:55.619Z,13.27
2022-11-17T21:36:24.981Z,13.97
2022-11-17T21:38:53.277Z,14.43
2022-11-17T21:41:22.254Z,14.57
2022-11-17T21:43:51.920Z,12.90
2022-11-17T21:46:22.346Z,13.20
2022-11-17T21:48:52.523Z,13.90
2022-11-17T21:51:22.526Z,13.80
2022-11-17T21:53:53.748Z,13.13
2022-11-17T21:56:25.564Z,13.40
2022-11-17T21:58:55.458Z,13.40
2022-11-17T22:01:23.406Z,14.10
2022-11-17T22:03:53.085Z,13.67
2022-11-17T22:06:22.820Z,12.07
2022-11-17T22:08:51.525Z,14.50
2022-11-17T22:11:35.106Z,12.63
2022-11-17T22:14:05.457Z,13.27
2022-11-17T22:16:33.893Z,14.07
2022-11-17T22:19:03.830Z,13.73
2022-11-17T22:21:31.791Z,13.83
2022-11-17T22:24:00.883Z,14.50
2022-11-17T22:26:31.740Z,14.33
2022-11-17T22:29:00.515Z,14.03
2022-11-17T22:31:28.632Z,14.30
2022-11-17T22:33:56.545Z,15.00
2022-11-17T22:36:25.847Z,13.57
2022-11-17T22:38:54.016Z,14.60
2022-11-17T22:41:23.447Z,12.93
2022-11-17T22:43:52.069Z,14.50
2022-11-17T22:46:21.112Z,15.03
2022-11-17T22:48:49.491Z,13.30
2022-11-17T22:51:33.653Z,12.40
2022-11-17T22:54:03.193Z,14.10
2022-11-17T22:56:31.314Z,13.87
2022-11-17T22:58:59.930Z,14.07
2022-11-17T23:01:28.190Z,12.80
2022-11-17T23:03:55.998Z,13.20
2022-11-17T23:06:24.190Z,13.17
2022-11-17T23:08:52.427Z,14.33
2022-11-17T23:11:36.563Z,12.20
2022-11-17T23:14:06.734Z,14.13
2022-11-17T23:16:34.666Z,14.37
2022-11-17T23:19:02.654Z,12.57
2022-11-17T23:21:30.490Z,12.90
2022-11-17T23:23:58.324Z,13.00
2022-11-17T23:26:27.635Z,13.10
2022-11-17T23:28:55.577Z,11.73
2022-11-17T23:31:23.529Z,11.00
2022-11-17T23:33:51.556Z,11.40
2022-11-17T23:36:21.079Z,11.93
2022-11-17T23:38:49.672Z,10.30
2022-11-17T23:41:20.312Z,11.07
2022-11-17T23:43:50.888Z,10.53
2022-11-17T23:46:20.629Z,10.20
2022-11-17T23:48:48.738Z,9.90
2022-11-17T23:51:18.280Z,9.50
2022-11-17T23:53:47.462Z,10.23
2022-11-17T23:56:15.618Z,8.90
2022-11-17T23:58:44.538Z,10.80
